Aeroporto :
LOGIN :

Iscrizione | Disclaimer

   EN    FR    IT 

 










Sommario :    VFR   VFR Marginale   IFR   IFR Intensivo   IFR Molto Intensivo
Visibilità : 
Base nubi : 
>= 8 km
>= 3000ft
5 / 8 km
1000 / 3000 ft
1500m / 5 km
500 / 1000 ft
800 / 1500m
200 / 500 ft
< 800m
< 200 ft
Simboli :   Temporali  Nebbia  Neve Forte  Precipitazioni Forti  Vento > 20 kt
SIGMETs :   Varie  Temporali  Ghiacco  Turbolenza  Onda orograficha  Ceneri Vulcaniche






- Altitudine del aeroporto : 24 ft
- Codice IATA : SGD


EKSB - Sonderborg

ULTIMO METAR :
  • 291220Z 18009KT 150V220 9999 FEW005 BKN017 09/08 Q0987

METARs OBSOLETI :
  • 291150Z 18006KT 140V220 9999 SCT005 BKN016 09/08 Q0987
  • 291050Z 18008KT 150V210 4000 -RA BR FEW003 BKN005 08/07 Q0988
  • 291020Z 18007KT 150V210 3000 -RA BR SCT003 BKN005 07/07 Q0988
  • 291012Z 18007KT 130V210 3000 -RA BR BKN004 07/06 Q0988
  • 291004Z 18007KT 150V210 5000 -RA SCT005 07/06 Q0988

TAF AMD TAF EKSB
Valido dal 29 a 10 ore il 29 a 14 ore UTC


291058Z 2910/2914 16010KT 3000 RADZ BR BKN005
BECMG 2911/2913 9999 NSW BKN015
TEMPO 2913/2914 BKN008



MetMap, La meteo Aeronautica in un colpo d'occhio ! - Copyright ORBIFLY Dicembre 2007 - Disclaimer

ORBIFLY MET'MAP TEAM :

Programmazione e sviluppo : Alexandra Zaïnal
Concezione : Baudouin d'Aumeries
Aiuto per la programmazione : Marc-Olivier Méhu
Supporto tecnico e logistico : Manuel Goepfert
Aiuto per la traduzione : Arnaldo La Scala

Contatto : metmap@orbifly.com




FONTI E CREDITI :

   NOAA